Goodnow, Wisconsin
Current Conditions -  °F | °C
As of 10:08 AM on Thursday 23 Oct 2014 (Local Time) from KRHI Reporting Station
Light Rain Light Rain  
Wind Chill: 39°   Ceiling: 1400
Heat Index: 43°   Visibility: 9mi
Dew Point: 40°   Wind: 7mph
Humidity: 89%   Direction: 190°S
Pressure: 30.06"   Gusts: NA
Location:  45.679°N, 89.6629°W
Report Text: KRHI 231508Z AUTO 19006KT 9SM -RA OVC014 06/04 A3006 RMK AO2 P0000 T00610044
Loading
Personal Weather Stations






























Interactive Weather Map
Tropical Storm Tracking
New forecast layout! Learn more

10-Day Weather Forecast

Advertisements
Track Severe Weather on mobile